sensor_id;sensor_type;location;lat;lon;timestamp;pressure;altitude;pressure_sealevel;temperature;humidity
22255;BME280;11296;42.684;23.322;2022-10-22T00:01:15;96089.41;;;8.41;100.00
22255;BME280;11296;42.684;23.322;2022-10-22T00:03:40;96072.88;;;8.42;100.00
22255;BME280;11296;42.684;23.322;2022-10-22T00:06:06;96093.94;;;8.56;100.00
22255;BME280;11296;42.684;23.322;2022-10-22T00:08:32;96102.94;;;8.50;100.00
22255;BME280;11296;42.684;23.322;2022-10-22T00:10:58;96112.50;;;8.63;100.00
22255;BME280;11296;42.684;23.322;2022-10-22T00:13:23;96101.84;;;8.60;100.00
22255;BME280;11296;42.684;23.322;2022-10-22T00:15:49;96086.19;;;8.46;100.00
22255;BME280;11296;42.684;23.322;2022-10-22T00:18:15;96094.31;;;8.30;100.00
22255;BME280;11296;42.684;23.322;2022-10-22T00:20:41;96076.53;;;8.07;100.00
22255;BME280;11296;42.684;23.322;2022-10-22T00:23:07;96063.66;;;8.02;100.00
22255;BME280;11296;42.684;23.322;2022-10-22T00:25:34;96068.00;;;8.12;100.00
22255;BME280;11296;42.684;23.322;2022-10-22T00:28:01;96109.91;;;8.47;100.00
22255;BME280;11296;42.684;23.322;2022-10-22T00:30:27;96055.34;;;8.12;100.00
22255;BME280;11296;42.684;23.322;2022-10-22T00:32:53;96053.81;;;7.99;100.00
22255;BME280;11296;42.684;23.322;2022-10-22T00:35:18;96045.41;;;7.84;100.00
22255;BME280;11296;42.684;23.322;2022-10-22T00:37:44;96035.78;;;7.87;100.00
22255;BME280;11296;42.684;23.322;2022-10-22T00:40:10;96093.56;;;8.29;100.00
22255;BME280;11296;42.684;23.322;2022-10-22T00:42:37;96047.69;;;7.98;100.00
22255;BME280;11296;42.684;23.322;2022-10-22T00:45:14;96049.22;;;7.99;100.00
22255;BME280;11296;42.684;23.322;2022-10-22T00:48:00;96098.16;;;8.29;100.00
22255;BME280;11296;42.684;23.322;2022-10-22T00:50:32;96075.47;;;8.04;100.00
22255;BME280;11296;42.684;23.322;2022-10-22T00:53:02;96055.72;;;7.98;100.00
22255;BME280;11296;42.684;23.322;2022-10-22T00:55:29;96100.75;;;8.32;100.00
22255;BME280;11296;42.684;23.322;2022-10-22T00:57:57;96051.44;;;7.88;100.00
22255;BME280;11296;42.684;23.322;2022-10-22T01:00:23;96068.81;;;8.09;100.00
22255;BME280;11296;42.684;23.322;2022-10-22T01:02:50;96028.34;;;7.78;100.00
22255;BME280;11296;42.684;23.322;2022-10-22T01:05:16;96042.94;;;7.77;100.00
22255;BME280;11296;42.684;23.322;2022-10-22T01:07:48;95992.09;;;7.48;100.00
22255;BME280;11296;42.684;23.322;2022-10-22T01:16:07;96042.44;;;7.95;100.00
22255;BME280;11296;42.684;23.322;2022-10-22T01:18:36;96065.81;;;7.94;100.00
22255;BME280;11296;42.684;23.322;2022-10-22T01:21:09;96059.97;;;7.83;100.00
22255;BME280;11296;42.684;23.322;2022-10-22T01:27:19;96038.13;;;7.85;100.00
22255;BME280;11296;42.684;23.322;2022-10-22T01:29:48;96039.72;;;7.82;100.00
22255;BME280;11296;42.684;23.322;2022-10-22T01:32:23;96032.13;;;7.81;100.00
22255;BME280;11296;42.684;23.322;2022-10-22T01:35:02;96034.38;;;7.82;100.00
22255;BME280;11296;42.684;23.322;2022-10-22T01:37:30;96047.25;;;7.87;100.00
22255;BME280;11296;42.684;23.322;2022-10-22T01:39:58;96033.53;;;7.85;100.00
22255;BME280;11296;42.684;23.322;2022-10-22T01:42:25;96038.66;;;7.80;100.00
22255;BME280;11296;42.684;23.322;2022-10-22T01:44:50;96020.00;;;7.76;100.00
22255;BME280;11296;42.684;23.322;2022-10-22T01:52:46;96042.53;;;7.91;100.00
22255;BME280;11296;42.684;23.322;2022-10-22T01:55:33;96047.88;;;7.91;100.00
22255;BME280;11296;42.684;23.322;2022-10-22T02:01:13;96034.25;;;7.73;100.00
22255;BME280;11296;42.684;23.322;2022-10-22T02:04:18;96045.94;;;7.79;100.00
22255;BME280;11296;42.684;23.322;2022-10-22T02:06:48;96025.75;;;7.62;100.00
22255;BME280;11296;42.684;23.322;2022-10-22T02:09:19;96009.59;;;7.37;100.00
22255;BME280;11296;42.684;23.322;2022-10-22T02:11:48;96015.97;;;7.56;100.00
22255;BME280;11296;42.684;23.322;2022-10-22T02:14:16;96037.63;;;7.61;100.00
22255;BME280;11296;42.684;23.322;2022-10-22T02:16:46;96013.25;;;7.43;100.00
22255;BME280;11296;42.684;23.322;2022-10-22T02:19:29;96027.59;;;7.49;100.00
22255;BME280;11296;42.684;23.322;2022-10-22T02:22:03;96011.94;;;7.35;100.00
22255;BME280;11296;42.684;23.322;2022-10-22T02:24:29;96032.97;;;7.49;100.00
22255;BME280;11296;42.684;23.322;2022-10-22T02:29:53;96032.31;;;7.45;100.00
22255;BME280;11296;42.684;23.322;2022-10-22T02:32:29;96007.88;;;7.14;100.00
22255;BME280;11296;42.684;23.322;2022-10-22T02:34:58;96035.91;;;7.38;100.00
22255;BME280;11296;42.684;23.322;2022-10-22T02:37:25;96008.03;;;7.23;100.00
22255;BME280;11296;42.684;23.322;2022-10-22T02:39:52;96047.53;;;7.48;100.00
22255;BME280;11296;42.684;23.322;2022-10-22T02:42:19;96031.91;;;7.46;100.00
22255;BME280;11296;42.684;23.322;2022-10-22T02:44:44;96038.31;;;7.49;100.00
22255;BME280;11296;42.684;23.322;2022-10-22T02:47:10;96051.13;;;7.58;100.00
22255;BME280;11296;42.684;23.322;2022-10-22T02:49:36;96036.94;;;7.44;100.00
22255;BME280;11296;42.684;23.322;2022-10-22T02:52:01;96005.47;;;7.20;100.00
22255;BME280;11296;42.684;23.322;2022-10-22T02:54:27;96056.66;;;7.51;100.00
22255;BME280;11296;42.684;23.322;2022-10-22T02:56:52;96034.94;;;7.32;100.00
22255;BME280;11296;42.684;23.322;2022-10-22T02:59:18;95981.50;;;7.00;100.00
22255;BME280;11296;42.684;23.322;2022-10-22T03:01:44;96019.06;;;7.25;100.00
22255;BME280;11296;42.684;23.322;2022-10-22T03:04:09;96050.16;;;7.35;100.00
22255;BME280;11296;42.684;23.322;2022-10-22T03:06:35;95963.22;;;6.83;100.00
22255;BME280;11296;42.684;23.322;2022-10-22T03:09:01;96013.41;;;7.07;100.00
22255;BME280;11296;42.684;23.322;2022-10-22T03:11:26;96042.81;;;7.23;100.00
22255;BME280;11296;42.684;23.322;2022-10-22T03:13:52;96023.44;;;7.19;100.00
22255;BME280;11296;42.684;23.322;2022-10-22T03:16:18;96016.50;;;7.06;100.00
22255;BME280;11296;42.684;23.322;2022-10-22T03:18:43;96027.69;;;7.17;100.00
22255;BME280;11296;42.684;23.322;2022-10-22T03:21:20;96014.75;;;7.15;100.00
22255;BME280;11296;42.684;23.322;2022-10-22T03:23:50;96015.16;;;7.14;100.00
22255;BME280;11296;42.684;23.322;2022-10-22T03:26:16;95951.19;;;6.74;100.00
22255;BME280;11296;42.684;23.322;2022-10-22T03:28:42;95993.78;;;6.98;100.00
22255;BME280;11296;42.684;23.322;2022-10-22T03:31:10;95993.97;;;6.91;100.00
22255;BME280;11296;42.684;23.322;2022-10-22T03:33:36;95978.84;;;6.84;100.00
22255;BME280;11296;42.684;23.322;2022-10-22T03:36:02;96029.44;;;7.23;100.00
22255;BME280;11296;42.684;23.322;2022-10-22T03:38:28;95985.34;;;6.99;100.00
22255;BME280;11296;42.684;23.322;2022-10-22T03:40:54;96000.28;;;7.13;100.00
22255;BME280;11296;42.684;23.322;2022-10-22T03:43:23;96007.97;;;7.11;100.00
22255;BME280;11296;42.684;23.322;2022-10-22T03:45:48;95986.41;;;7.02;100.00
22255;BME280;11296;42.684;23.322;2022-10-22T03:48:14;96013.81;;;7.22;100.00
22255;BME280;11296;42.684;23.322;2022-10-22T03:50:40;95986.59;;;6.95;100.00
22255;BME280;11296;42.684;23.322;2022-10-22T03:53:05;95992.19;;;7.00;100.00
22255;BME280;11296;42.684;23.322;2022-10-22T03:55:32;96024.78;;;7.11;100.00
22255;BME280;11296;42.684;23.322;2022-10-22T03:57:58;96022.44;;;7.13;100.00
22255;BME280;11296;42.684;23.322;2022-10-22T04:00:24;96022.59;;;7.06;100.00
22255;BME280;11296;42.684;23.322;2022-10-22T04:02:49;95989.38;;;6.91;100.00
22255;BME280;11296;42.684;23.322;2022-10-22T04:05:15;95940.53;;;6.58;100.00
22255;BME280;11296;42.684;23.322;2022-10-22T04:07:41;95999.63;;;6.77;100.00
22255;BME280;11296;42.684;23.322;2022-10-22T04:10:06;96012.19;;;6.96;100.00
22255;BME280;11296;42.684;23.322;2022-10-22T04:12:32;96023.44;;;7.03;100.00
22255;BME280;11296;42.684;23.322;2022-10-22T04:14:58;96003.81;;;6.94;100.00
22255;BME280;11296;42.684;23.322;2022-10-22T04:17:23;95989.94;;;6.99;100.00
22255;BME280;11296;42.684;23.322;2022-10-22T04:19:49;95981.91;;;6.99;100.00
22255;BME280;11296;42.684;23.322;2022-10-22T04:22:15;95992.41;;;7.22;100.00
22255;BME280;11296;42.684;23.322;2022-10-22T04:24:40;95980.78;;;7.12;100.00
22255;BME280;11296;42.684;23.322;2022-10-22T04:27:06;95996.81;;;7.28;100.00
22255;BME280;11296;42.684;23.322;2022-10-22T04:29:31;95973.81;;;7.02;100.00
22255;BME280;11296;42.684;23.322;2022-10-22T04:31:57;95993.88;;;7.23;100.00
22255;BME280;11296;42.684;23.322;2022-10-22T04:34:26;95958.16;;;7.01;100.00
22255;BME280;11296;42.684;23.322;2022-10-22T04:36:52;95983.56;;;7.09;100.00
22255;BME280;11296;42.684;23.322;2022-10-22T04:39:17;95982.91;;;7.05;100.00
22255;BME280;11296;42.684;23.322;2022-10-22T04:41:43;95978.22;;;7.09;100.00
22255;BME280;11296;42.684;23.322;2022-10-22T04:44:08;95970.28;;;7.05;100.00
22255;BME280;11296;42.684;23.322;2022-10-22T04:46:35;95973.34;;;7.20;100.00
22255;BME280;11296;42.684;23.322;2022-10-22T04:49:00;95973.84;;;7.15;100.00
22255;BME280;11296;42.684;23.322;2022-10-22T04:51:28;95999.25;;;7.23;100.00
22255;BME280;11296;42.684;23.322;2022-10-22T04:53:53;95984.03;;;7.20;100.00
22255;BME280;11296;42.684;23.322;2022-10-22T04:56:23;96006.09;;;7.40;100.00
22255;BME280;11296;42.684;23.322;2022-10-22T04:58:51;95996.25;;;7.21;100.00
22255;BME280;11296;42.684;23.322;2022-10-22T05:01:39;96045.66;;;7.61;100.00
22255;BME280;11296;42.684;23.322;2022-10-22T05:04:06;96010.69;;;7.39;100.00
22255;BME280;11296;42.684;23.322;2022-10-22T05:06:33;96010.53;;;7.30;100.00
22255;BME280;11296;42.684;23.322;2022-10-22T05:09:02;95972.47;;;7.23;100.00
22255;BME280;11296;42.684;23.322;2022-10-22T05:11:31;96033.53;;;7.57;100.00
22255;BME280;11296;42.684;23.322;2022-10-22T05:14:00;96032.97;;;7.49;100.00
22255;BME280;11296;42.684;23.322;2022-10-22T05:16:27;96066.44;;;7.86;100.00
22255;BME280;11296;42.684;23.322;2022-10-22T05:18:53;96050.19;;;7.64;100.00
22255;BME280;11296;42.684;23.322;2022-10-22T05:21:20;96006.72;;;7.44;100.00
22255;BME280;11296;42.684;23.322;2022-10-22T05:23:48;96011.38;;;7.56;100.00
22255;BME280;11296;42.684;23.322;2022-10-22T05:26:16;96028.09;;;7.60;100.00
22255;BME280;11296;42.684;23.322;2022-10-22T05:28:42;96054.66;;;7.67;100.00
22255;BME280;11296;42.684;23.322;2022-10-22T05:31:10;96023.94;;;7.43;100.00
22255;BME280;11296;42.684;23.322;2022-10-22T05:33:36;96003.75;;;7.26;100.00
22255;BME280;11296;42.684;23.322;2022-10-22T05:36:03;96029.31;;;7.43;100.00
22255;BME280;11296;42.684;23.322;2022-10-22T05:38:30;96037.47;;;7.52;100.00
22255;BME280;11296;42.684;23.322;2022-10-22T05:41:07;96019.25;;;7.47;100.00
22255;BME280;11296;42.684;23.322;2022-10-22T05:43:34;96066.81;;;7.84;100.00
22255;BME280;11296;42.684;23.322;2022-10-22T05:46:07;96077.91;;;7.86;100.00
22255;BME280;11296;42.684;23.322;2022-10-22T05:48:33;96035.41;;;7.72;100.00
22255;BME280;11296;42.684;23.322;2022-10-22T05:51:04;96034.13;;;7.64;100.00
22255;BME280;11296;42.684;23.322;2022-10-22T05:53:31;96037.78;;;7.70;100.00
22255;BME280;11296;42.684;23.322;2022-10-22T05:56:06;96035.59;;;7.65;100.00
22255;BME280;11296;42.684;23.322;2022-10-22T05:58:32;96004.97;;;7.66;100.00
22255;BME280;11296;42.684;23.322;2022-10-22T06:01:07;96021.66;;;7.86;100.00
22255;BME280;11296;42.684;23.322;2022-10-22T06:03:33;96033.66;;;7.94;100.00
22255;BME280;11296;42.684;23.322;2022-10-22T06:06:28;96027.47;;;7.97;100.00
22255;BME280;11296;42.684;23.322;2022-10-22T06:08:52;96029.63;;;8.15;100.00
22255;BME280;11296;42.684;23.322;2022-10-22T06:11:19;96042.00;;;8.38;100.00
22255;BME280;11296;42.684;23.322;2022-10-22T06:13:46;96065.28;;;8.66;100.00
22255;BME280;11296;42.684;23.322;2022-10-22T06:16:12;96055.63;;;8.68;100.00
22255;BME280;11296;42.684;23.322;2022-10-22T06:18:38;96013.34;;;8.60;100.00
22255;BME280;11296;42.684;23.322;2022-10-22T06:21:06;96060.97;;;8.93;100.00
22255;BME280;11296;42.684;23.322;2022-10-22T06:23:32;96058.38;;;9.15;100.00
22255;BME280;11296;42.684;23.322;2022-10-22T06:25:58;96068.22;;;9.31;100.00
22255;BME280;11296;42.684;23.322;2022-10-22T06:28:24;96038.63;;;9.09;100.00
22255;BME280;11296;42.684;23.322;2022-10-22T06:30:50;96039.13;;;9.29;100.00
22255;BME280;11296;42.684;23.322;2022-10-22T06:33:15;96056.56;;;9.46;100.00
22255;BME280;11296;42.684;23.322;2022-10-22T06:35:41;96039.88;;;9.17;100.00
22255;BME280;11296;42.684;23.322;2022-10-22T06:38:07;96036.63;;;9.35;100.00
22255;BME280;11296;42.684;23.322;2022-10-22T06:40:32;96038.00;;;9.39;100.00
22255;BME280;11296;42.684;23.322;2022-10-22T06:42:59;96071.09;;;9.70;100.00
22255;BME280;11296;42.684;23.322;2022-10-22T06:45:25;96052.06;;;9.65;100.00
22255;BME280;11296;42.684;23.322;2022-10-22T06:47:51;96000.94;;;9.34;100.00
22255;BME280;11296;42.684;23.322;2022-10-22T06:50:17;95999.31;;;9.49;100.00
22255;BME280;11296;42.684;23.322;2022-10-22T06:52:42;96040.53;;;9.77;100.00
22255;BME280;11296;42.684;23.322;2022-10-22T06:55:08;96042.84;;;9.88;100.00
22255;BME280;11296;42.684;23.322;2022-10-22T06:57:34;96074.03;;;10.07;100.00
22255;BME280;11296;42.684;23.322;2022-10-22T07:00:00;96046.91;;;9.92;100.00
22255;BME280;11296;42.684;23.322;2022-10-22T07:02:26;96066.78;;;9.95;100.00
22255;BME280;11296;42.684;23.322;2022-10-22T07:04:51;96071.91;;;10.02;100.00
22255;BME280;11296;42.684;23.322;2022-10-22T07:07:17;96036.28;;;9.89;100.00
22255;BME280;11296;42.684;23.322;2022-10-22T07:09:43;96010.03;;;9.93;100.00
22255;BME280;11296;42.684;23.322;2022-10-22T07:12:11;96032.59;;;10.17;100.00
22255;BME280;11296;42.684;23.322;2022-10-22T07:14:38;96045.56;;;10.40;100.00
22255;BME280;11296;42.684;23.322;2022-10-22T07:17:04;96038.84;;;10.44;100.00
22255;BME280;11296;42.684;23.322;2022-10-22T07:19:29;96024.28;;;10.55;100.00
22255;BME280;11296;42.684;23.322;2022-10-22T07:21:56;96026.69;;;10.62;100.00
22255;BME280;11296;42.684;23.322;2022-10-22T07:24:21;96027.41;;;10.62;100.00
22255;BME280;11296;42.684;23.322;2022-10-22T07:26:47;96022.53;;;10.70;100.00
22255;BME280;11296;42.684;23.322;2022-10-22T07:29:13;96018.22;;;10.81;100.00
22255;BME280;11296;42.684;23.322;2022-10-22T07:31:40;95999.53;;;10.78;100.00
22255;BME280;11296;42.684;23.322;2022-10-22T07:34:07;95993.56;;;10.83;100.00
22255;BME280;11296;42.684;23.322;2022-10-22T07:36:33;96021.28;;;11.19;100.00
22255;BME280;11296;42.684;23.322;2022-10-22T07:38:59;96033.13;;;11.31;100.00
22255;BME280;11296;42.684;23.322;2022-10-22T07:41:27;96010.97;;;11.09;100.00
22255;BME280;11296;42.684;23.322;2022-10-22T07:43:53;96008.44;;;11.14;100.00
22255;BME280;11296;42.684;23.322;2022-10-22T07:46:19;96013.53;;;11.49;100.00
22255;BME280;11296;42.684;23.322;2022-10-22T07:48:45;95974.47;;;11.35;100.00
22255;BME280;11296;42.684;23.322;2022-10-22T07:51:11;95989.13;;;11.70;100.00
22255;BME280;11296;42.684;23.322;2022-10-22T07:53:37;95992.25;;;11.96;100.00
22255;BME280;11296;42.684;23.322;2022-10-22T07:56:03;96023.03;;;12.31;100.00
22255;BME280;11296;42.684;23.322;2022-10-22T07:58:29;96002.09;;;12.08;100.00
22255;BME280;11296;42.684;23.322;2022-10-22T08:00:56;95976.81;;;11.97;100.00
22255;BME280;11296;42.684;23.322;2022-10-22T08:03:22;95959.91;;;11.96;100.00
22255;BME280;11296;42.684;23.322;2022-10-22T08:05:48;95999.13;;;12.06;100.00
22255;BME280;11296;42.684;23.322;2022-10-22T08:08:15;96029.25;;;12.55;100.00
22255;BME280;11296;42.684;23.322;2022-10-22T08:10:41;95997.84;;;12.34;100.00
22255;BME280;11296;42.684;23.322;2022-10-22T08:13:07;96000.09;;;12.69;100.00
22255;BME280;11296;42.684;23.322;2022-10-22T08:15:33;95974.34;;;12.58;100.00
22255;BME280;11296;42.684;23.322;2022-10-22T08:17:58;96007.75;;;12.94;100.00
22255;BME280;11296;42.684;23.322;2022-10-22T08:20:24;96022.28;;;13.05;100.00
22255;BME280;11296;42.684;23.322;2022-10-22T08:22:50;95993.31;;;13.06;100.00
22255;BME280;11296;42.684;23.322;2022-10-22T08:25:16;95992.63;;;13.20;100.00
22255;BME280;11296;42.684;23.322;2022-10-22T08:27:42;95993.25;;;13.38;100.00
22255;BME280;11296;42.684;23.322;2022-10-22T08:30:09;95958.47;;;13.46;100.00
22255;BME280;11296;42.684;23.322;2022-10-22T08:32:35;95979.25;;;13.78;100.00
22255;BME280;11296;42.684;23.322;2022-10-22T08:35:01;95963.16;;;13.60;100.00
22255;BME280;11296;42.684;23.322;2022-10-22T08:37:26;95976.81;;;13.66;100.00
22255;BME280;11296;42.684;23.322;2022-10-22T08:39:52;95945.28;;;13.48;100.00
22255;BME280;11296;42.684;23.322;2022-10-22T08:49:59;95979.91;;;15.01;100.00
22255;BME280;11296;42.684;23.322;2022-10-22T08:52:26;95979.50;;;16.20;100.00
22255;BME280;11296;42.684;23.322;2022-10-22T08:54:54;95967.03;;;17.13;100.00
22255;BME280;11296;42.684;23.322;2022-10-22T08:57:43;95982.69;;;18.43;93.59
22255;BME280;11296;42.684;23.322;2022-10-22T09:00:21;95999.53;;;19.65;84.08
22255;BME280;11296;42.684;23.322;2022-10-22T09:03:12;95998.34;;;20.96;76.48
22255;BME280;11296;42.684;23.322;2022-10-22T09:05:58;95978.19;;;20.99;70.90
22255;BME280;11296;42.684;23.322;2022-10-22T09:08:26;95970.13;;;21.12;70.73
22255;BME280;11296;42.684;23.322;2022-10-22T09:13:37;95941.19;;;22.29;61.10
22255;BME280;11296;42.684;23.322;2022-10-22T09:16:24;95952.47;;;23.22;58.10
22255;BME280;11296;42.684;23.322;2022-10-22T09:25:13;95938.03;;;23.22;54.47
22255;BME280;11296;42.684;23.322;2022-10-22T09:27:29;95970.66;;;24.32;51.83
22255;BME280;11296;42.684;23.322;2022-10-22T09:29:55;95924.84;;;23.80;51.73
22255;BME280;11296;42.684;23.322;2022-10-22T09:32:21;95937.31;;;23.81;51.80
22255;BME280;11296;42.684;23.322;2022-10-22T09:34:49;95923.81;;;23.70;51.43
22255;BME280;11296;42.684;23.322;2022-10-22T09:37:17;95934.16;;;24.32;50.14
22255;BME280;11296;42.684;23.322;2022-10-22T09:39:46;95925.78;;;24.16;49.54
22255;BME280;11296;42.684;23.322;2022-10-22T09:42:15;95941.88;;;24.54;49.08
22255;BME280;11296;42.684;23.322;2022-10-22T09:44:41;95929.63;;;25.11;48.74
22255;BME280;11296;42.684;23.322;2022-10-22T09:50:19;95936.31;;;24.46;48.30
22255;BME280;11296;42.684;23.322;2022-10-22T09:52:54;95919.81;;;24.05;50.18
22255;BME280;11296;42.684;23.322;2022-10-22T09:55:23;95924.47;;;24.59;48.26
22255;BME280;11296;42.684;23.322;2022-10-22T09:57:54;95885.69;;;23.20;50.90
22255;BME280;11296;42.684;23.322;2022-10-22T10:00:23;95877.19;;;23.31;51.34
22255;BME280;11296;42.684;23.322;2022-10-22T10:02:54;95912.03;;;24.16;51.02
22255;BME280;11296;42.684;23.322;2022-10-22T10:05:31;95908.78;;;24.46;50.11
22255;BME280;11296;42.684;23.322;2022-10-22T10:07:58;95874.81;;;24.85;48.73
22255;BME280;11296;42.684;23.322;2022-10-22T10:10:40;95919.44;;;24.70;48.55
22255;BME280;11296;42.684;23.322;2022-10-22T10:16:24;95902.06;;;23.72;50.60
22255;BME280;11296;42.684;23.322;2022-10-22T10:27:05;95896.47;;;24.68;48.64
22255;BME280;11296;42.684;23.322;2022-10-22T10:34:59;95873.41;;;26.84;43.61
22255;BME280;11296;42.684;23.322;2022-10-22T10:37:32;95888.66;;;27.87;41.13
22255;BME280;11296;42.684;23.322;2022-10-22T10:43:00;95849.69;;;27.36;41.08
22255;BME280;11296;42.684;23.322;2022-10-22T10:45:51;95866.47;;;28.51;39.13
22255;BME280;11296;42.684;23.322;2022-10-22T10:56:38;95851.63;;;28.39;39.10
22255;BME280;11296;42.684;23.322;2022-10-22T10:59:19;95837.00;;;27.97;39.66
22255;BME280;11296;42.684;23.322;2022-10-22T11:07:25;95802.75;;;26.81;41.10
22255;BME280;11296;42.684;23.322;2022-10-22T11:10:03;95817.09;;;27.66;39.80
22255;BME280;11296;42.684;23.322;2022-10-22T11:12:38;95808.53;;;27.07;40.26
22255;BME280;11296;42.684;23.322;2022-10-22T11:15:23;95792.31;;;27.51;39.67
22255;BME280;11296;42.684;23.322;2022-10-22T11:17:58;95776.84;;;26.46;41.48
22255;BME280;11296;42.684;23.322;2022-10-22T11:20:38;95778.94;;;27.33;40.33
22255;BME280;11296;42.684;23.322;2022-10-22T11:23:19;95766.38;;;27.47;39.43
22255;BME280;11296;42.684;23.322;2022-10-22T11:25:49;95764.97;;;28.12;39.04
22255;BME280;11296;42.684;23.322;2022-10-22T11:31:17;95774.78;;;28.47;37.77
22255;BME280;11296;42.684;23.322;2022-10-22T11:36:34;95765.91;;;30.17;36.01
22255;BME280;11296;42.684;23.322;2022-10-22T11:39:02;95743.69;;;29.71;35.14
22255;BME280;11296;42.684;23.322;2022-10-22T11:41:28;95731.38;;;27.42;38.13
22255;BME280;11296;42.684;23.322;2022-10-22T11:44:20;95712.75;;;28.68;37.00
22255;BME280;11296;42.684;23.322;2022-10-22T11:46:45;95743.00;;;28.14;37.47
22255;BME280;11296;42.684;23.322;2022-10-22T11:49:42;95756.00;;;28.04;38.02
22255;BME280;11296;42.684;23.322;2022-10-22T11:54:54;95738.63;;;28.80;36.01
22255;BME280;11296;42.684;23.322;2022-10-22T11:57:25;95712.25;;;28.27;36.87
22255;BME280;11296;42.684;23.322;2022-10-22T11:59:56;95715.50;;;27.99;38.45
22255;BME280;11296;42.684;23.322;2022-10-22T12:02:31;95747.75;;;28.21;38.28
22255;BME280;11296;42.684;23.322;2022-10-22T12:07:57;95754.59;;;29.06;35.88
22255;BME280;11296;42.684;23.322;2022-10-22T12:10:47;95703.31;;;29.77;34.88
22255;BME280;11296;42.684;23.322;2022-10-22T12:13:26;95730.22;;;29.58;35.24
22255;BME280;11296;42.684;23.322;2022-10-22T12:15:56;95681.16;;;28.36;36.17
22255;BME280;11296;42.684;23.322;2022-10-22T12:18:39;95701.19;;;28.27;36.22
22255;BME280;11296;42.684;23.322;2022-10-22T12:21:11;95707.53;;;30.34;34.14
22255;BME280;11296;42.684;23.322;2022-10-22T12:23:37;95699.91;;;31.01;33.62
22255;BME280;11296;42.684;23.322;2022-10-22T12:26:03;95718.53;;;31.48;32.40
22255;BME280;11296;42.684;23.322;2022-10-22T12:28:39;95710.72;;;31.97;31.37
22255;BME280;11296;42.684;23.322;2022-10-22T12:31:05;95711.81;;;32.55;30.81
22255;BME280;11296;42.684;23.322;2022-10-22T12:33:39;95684.28;;;32.82;30.44
22255;BME280;11296;42.684;23.322;2022-10-22T12:36:05;95707.59;;;31.22;31.17
22255;BME280;11296;42.684;23.322;2022-10-22T12:38:30;95714.09;;;31.95;31.44
22255;BME280;11296;42.684;23.322;2022-10-22T12:40:56;95691.38;;;31.99;31.58
22255;BME280;11296;42.684;23.322;2022-10-22T12:43:29;95704.75;;;30.72;32.11
22255;BME280;11296;42.684;23.322;2022-10-22T12:45:55;95686.56;;;29.85;33.42
22255;BME280;11296;42.684;23.322;2022-10-22T12:48:31;95701.84;;;30.51;32.81
22255;BME280;11296;42.684;23.322;2022-10-22T12:51:03;95677.66;;;29.86;33.51
22255;BME280;11296;42.684;23.322;2022-10-22T12:53:37;95661.63;;;30.14;32.10
22255;BME280;11296;42.684;23.322;2022-10-22T12:56:06;95663.41;;;30.57;32.11
22255;BME280;11296;42.684;23.322;2022-10-22T12:58:44;95663.69;;;30.32;32.42
22255;BME280;11296;42.684;23.322;2022-10-22T13:01:14;95680.97;;;31.28;31.21
22255;BME280;11296;42.684;23.322;2022-10-22T13:04:01;95643.25;;;31.16;30.81
22255;BME280;11296;42.684;23.322;2022-10-22T13:06:33;95628.28;;;30.90;31.14
22255;BME280;11296;42.684;23.322;2022-10-22T13:19:38;95625.97;;;30.00;32.31
22255;BME280;11296;42.684;23.322;2022-10-22T13:22:20;95655.38;;;31.20;31.31
22255;BME280;11296;42.684;23.322;2022-10-22T13:24:49;95604.81;;;29.95;32.31
22255;BME280;11296;42.684;23.322;2022-10-22T13:27:15;95667.03;;;29.56;33.46
22255;BME280;11296;42.684;23.322;2022-10-22T13:29:41;95623.31;;;27.55;36.29
22255;BME280;11296;42.684;23.322;2022-10-22T13:32:29;95642.72;;;27.23;35.53
22255;BME280;11296;42.684;23.322;2022-10-22T13:34:57;95678.03;;;27.56;36.34
22255;BME280;11296;42.684;23.322;2022-10-22T13:37:24;95639.72;;;27.95;35.95
22255;BME280;11296;42.684;23.322;2022-10-22T13:39:50;95630.31;;;28.32;35.42
22255;BME280;11296;42.684;23.322;2022-10-22T13:42:15;95626.06;;;28.14;35.16
22255;BME280;11296;42.684;23.322;2022-10-22T13:44:41;95625.75;;;28.97;35.30
22255;BME280;11296;42.684;23.322;2022-10-22T13:47:36;95648.97;;;29.28;34.79
22255;BME280;11296;42.684;23.322;2022-10-22T13:50:03;95623.19;;;28.73;34.17
22255;BME280;11296;42.684;23.322;2022-10-22T13:52:39;95627.91;;;29.16;33.80
22255;BME280;11296;42.684;23.322;2022-10-22T13:55:21;95608.47;;;28.80;34.39
22255;BME280;11296;42.684;23.322;2022-10-22T13:57:50;95632.25;;;28.05;35.18
22255;BME280;11296;42.684;23.322;2022-10-22T14:00:20;95655.13;;;27.39;36.28
22255;BME280;11296;42.684;23.322;2022-10-22T14:02:48;95639.97;;;27.23;37.19
22255;BME280;11296;42.684;23.322;2022-10-22T14:05:16;95625.03;;;26.61;38.09
22255;BME280;11296;42.684;23.322;2022-10-22T14:07:42;95654.16;;;26.47;39.91
22255;BME280;11296;42.684;23.322;2022-10-22T14:10:20;95662.34;;;27.09;39.44
22255;BME280;11296;42.684;23.322;2022-10-22T14:12:46;95628.19;;;27.47;39.09
22255;BME280;11296;42.684;23.322;2022-10-22T14:15:13;95619.88;;;26.97;39.22
22255;BME280;11296;42.684;23.322;2022-10-22T14:17:44;95627.69;;;26.44;39.80
22255;BME280;11296;42.684;23.322;2022-10-22T14:20:19;95651.56;;;25.71;42.80
22255;BME280;11296;42.684;23.322;2022-10-22T14:22:47;95620.72;;;25.73;43.02
22255;BME280;11296;42.684;23.322;2022-10-22T14:25:15;95611.72;;;25.50;42.96
22255;BME280;11296;42.684;23.322;2022-10-22T14:27:41;95629.19;;;26.37;41.95
22255;BME280;11296;42.684;23.322;2022-10-22T14:30:08;95651.50;;;26.64;41.13
22255;BME280;11296;42.684;23.322;2022-10-22T14:32:34;95634.25;;;25.94;42.10
22255;BME280;11296;42.684;23.322;2022-10-22T14:34:59;95599.22;;;25.34;43.74